Time;durP1;ratioP1;P1;durP2;ratioP2;P2;SDS_P1;SDS_P2;PMS_P1;PMS_P2;Temp;Humidity;BMP_temperature;BMP_pressure;BME280_temperature;BME280_humidity;BME280_pressure;Samples;Min_cycle;Max_cycle;Signal;HPM_P1;HPM_P2
2023/07/21 06:20:29;;;;;;;4.17;3.27;;;17.50;99.90;;;;;;6247654;22;20237;-85
2023/07/21 06:26:21;;;;;;;5.47;3.40;;;17.80;99.90;;;;;;6276974;22;20209;-85
2023/07/21 06:32:24;;;;;;;7.93;3.90;;;18.00;99.90;;;;;;6258455;22;20200;-85
2023/07/21 06:35:22;;;;;;;3.50;3.20;;;18.00;99.90;;;;;;6029493;23;20175;-86
2023/07/21 06:43:39;;;;;;;5.23;3.50;;;18.40;99.90;;;;;;6156896;23;20172;-85
2023/07/21 06:46:47;;;;;;;4.50;3.30;;;18.60;99.90;;;;;;6210621;23;20174;-85
2023/07/21 06:49:29;;;;;;;4.57;3.30;;;18.50;99.90;;;;;;6219117;23;20191;-84
2023/07/21 06:53:24;;;;;;;4.90;3.57;;;18.60;99.90;;;;;;6096762;23;20194;-84
2023/07/21 07:47:44;;;;;;;3.43;2.57;;;19.70;99.90;;;;;;6265816;22;20209;-84
2023/07/21 07:58:09;;;;;;;4.13;2.70;;;20.50;99.90;;;;;;6247238;22;20205;-85
2023/07/21 08:23:11;;;;;;;2.63;2.00;;;20.80;99.90;;;;;;6238279;22;20185;-88
2023/07/21 10:53:01;;;;;;;1.67;1.42;;;26.20;99.90;;;;;;6235697;22;20366;-84
2023/07/21 11:48:34;;;;;;;1.30;1.13;;;28.70;74.50;;;;;;6242800;22;20209;-85
2023/07/21 11:51:05;;;;;;;1.67;1.13;;;29.00;73.40;;;;;;6250500;23;20412;-86
2023/07/21 11:53:48;;;;;;;3.03;1.50;;;29.20;74.20;;;;;;6198590;23;20469;-88
2023/07/21 11:56:16;;;;;;;1.35;1.25;;;29.60;74.00;;;;;;6225187;23;20146;-87
2023/07/21 11:58:43;;;;;;;1.98;1.20;;;29.90;73.60;;;;;;6249912;23;20852;-87
2023/07/21 12:01:11;;;;;;;1.38;1.25;;;30.10;73.70;;;;;;6251733;23;20166;-87
2023/07/21 12:03:40;;;;;;;1.30;1.10;;;29.20;71.40;;;;;;6224962;23;20180;-89
2023/07/21 12:06:09;;;;;;;1.20;1.10;;;29.10;72.70;;;;;;6249788;23;20241;-85
2023/07/21 12:08:36;;;;;;;1.48;1.20;;;28.40;73.80;;;;;;6251003;23;20190;-84
2023/07/21 12:11:04;;;;;;;2.00;1.30;;;27.90;74.30;;;;;;6250577;23;20265;-84
2023/07/21 12:13:33;;;;;;;1.48;1.20;;;27.50;75.60;;;;;;6223742;23;20173;-84
2023/07/21 12:16:01;;;;;;;1.90;1.40;;;26.90;76.90;;;;;;6223516;23;20194;-83
2023/07/21 12:18:28;;;;;;;1.58;1.40;;;27.00;76.50;;;;;;6251116;23;20301;-87
2023/07/21 12:20:55;;;;;;;3.78;1.50;;;27.80;75.00;;;;;;6224345;23;20171;-88
2023/07/21 12:23:23;;;;;;;1.88;1.10;;;28.40;73.80;;;;;;6223870;23;20437;-87
2023/07/21 12:25:50;;;;;;;2.53;1.23;;;29.10;73.30;;;;;;6250105;23;20166;-87
2023/07/21 12:28:25;;;;;;;1.60;1.10;;;29.40;72.80;;;;;;6250148;23;20174;-87
2023/07/21 12:30:53;;;;;;;1.45;1.08;;;29.60;73.00;;;;;;6250780;23;20228;-87
2023/07/21 12:33:20;;;;;;;1.10;1.00;;;29.70;72.40;;;;;;6249661;23;20186;-85
2023/07/21 12:35:48;;;;;;;1.35;1.20;;;30.00;72.30;;;;;;6224669;23;20166;-87
2023/07/21 12:38:15;;;;;;;1.80;1.30;;;30.60;69.90;;;;;;6199863;23;20256;-86
2023/07/21 12:40:43;;;;;;;2.13;1.20;;;31.20;70.00;;;;;;6224165;23;20198;-87
2023/07/21 12:43:10;;;;;;;1.50;1.20;;;31.70;67.30;;;;;;6250262;23;20182;-86
2023/07/21 12:45:38;;;;;;;2.42;1.30;;;32.10;67.30;;;;;;6224386;23;20556;-86
2023/07/21 12:48:07;;;;;;;1.33;1.05;;;32.30;62.70;;;;;;6224287;23;20190;-85
2023/07/21 12:50:35;;;;;;;1.30;0.93;;;32.30;59.80;;;;;;6251684;23;20549;-86
2023/07/21 12:53:02;;;;;;;1.13;1.00;;;32.50;59.30;;;;;;6251056;23;20253;-86
2023/07/21 12:55:31;;;;;;;1.23;1.13;;;32.20;58.00;;;;;;6224751;23;20416;-86
2023/07/21 12:57:58;;;;;;;1.95;1.00;;;32.30;58.60;;;;;;6250094;23;20188;-86
2023/07/21 13:00:26;;;;;;;1.17;1.08;;;32.50;57.80;;;;;;6224823;23;20539;-84
2023/07/21 13:02:53;;;;;;;1.33;1.05;;;32.40;57.30;;;;;;6223983;23;20194;-86
2023/07/21 13:05:21;;;;;;;1.35;1.20;;;32.00;56.60;;;;;;6249957;23;20169;-84
2023/07/21 13:07:48;;;;;;;1.42;1.10;;;30.00;59.90;;;;;;6251192;23;20189;-83
2023/07/21 13:10:16;;;;;;;4.85;1.40;;;29.40;62.00;;;;;;6250724;23;20182;-85
2023/07/21 13:12:43;;;;;;;3.47;1.10;;;28.80;63.10;;;;;;6251366;23;20569;-83
2023/07/21 13:15:10;;;;;;;1.00;0.88;;;29.10;62.70;;;;;;6250309;23;20162;-84
2023/07/21 13:17:38;;;;;;;3.13;1.20;;;29.20;62.40;;;;;;6250842;23;20178;-84
2023/07/21 13:20:09;;;;;;;1.35;1.10;;;29.10;61.80;;;;;;6250139;23;20166;-84
2023/07/21 13:22:37;;;;;;;1.20;1.10;;;28.40;61.30;;;;;;6223554;23;20186;-83
2023/07/21 13:25:05;;;;;;;2.38;1.27;;;28.60;63.40;;;;;;6247725;23;20162;-83
2023/07/21 13:27:32;;;;;;;1.17;1.00;;;28.80;63.30;;;;;;6222361;23;20194;-82
2023/07/21 13:30:01;;;;;;;1.15;1.00;;;29.60;62.00;;;;;;6222578;23;20198;-84
2023/07/21 13:32:28;;;;;;;1.30;1.05;;;30.20;59.30;;;;;;6222750;23;20190;-82
2023/07/21 13:34:56;;;;;;;1.20;1.00;;;30.50;58.90;;;;;;6248233;23;20162;-83
2023/07/21 13:37:24;;;;;;;1.00;0.90;;;30.70;58.80;;;;;;6248373;23;20182;-84
2023/07/21 13:39:52;;;;;;;2.45;1.10;;;30.90;57.40;;;;;;6248269;23;20170;-81
2023/07/21 13:42:19;;;;;;;3.17;1.08;;;31.40;55.40;;;;;;6198542;23;20190;-83
2023/07/21 13:44:47;;;;;;;1.30;1.00;;;31.50;54.70;;;;;;6249567;23;20166;-89
2023/07/21 13:47:14;;;;;;;0.90;0.90;;;31.90;53.50;;;;;;6248233;23;20490;-86
2023/07/21 13:49:41;;;;;;;1.30;1.00;;;32.10;53.00;;;;;;6223677;23;20170;-84
2023/07/21 13:52:09;;;;;;;5.20;0.93;;;32.30;54.30;;;;;;6251710;23;20251;-85
2023/07/21 13:54:36;;;;;;;1.05;0.90;;;32.40;52.30;;;;;;6252342;23;20158;-85
2023/07/21 13:57:03;;;;;;;1.77;1.23;;;32.70;52.40;;;;;;6252033;23;20178;-83
2023/07/21 13:59:30;;;;;;;1.30;1.00;;;33.10;52.10;;;;;;6252382;23;20216;-85
2023/07/21 14:01:58;;;;;;;1.23;0.80;;;33.50;52.40;;;;;;6252974;23;20189;-85
2023/07/21 14:04:26;;;;;;;1.20;0.90;;;33.30;50.60;;;;;;6252544;23;20390;-86
2023/07/21 14:06:53;;;;;;;1.75;1.05;;;32.40;50.80;;;;;;6252613;23;20201;-86
2023/07/21 14:09:20;;;;;;;1.40;0.90;;;31.90;51.30;;;;;;6226444;23;20177;-85
2023/07/21 14:11:48;;;;;;;0.93;0.93;;;31.50;52.30;;;;;;6227217;23;20201;-85
2023/07/21 14:14:15;;;;;;;1.98;1.10;;;31.20;53.50;;;;;;6226516;23;20170;-84
2023/07/21 14:16:42;;;;;;;2.65;1.10;;;31.50;53.00;;;;;;6201175;23;20212;-84
2023/07/21 14:19:12;;;;;;;2.25;0.90;;;31.70;52.90;;;;;;6252928;23;20143;-86
2023/07/21 14:21:40;;;;;;;1.77;1.00;;;31.40;52.20;;;;;;6252042;23;20178;-85
2023/07/21 14:24:07;;;;;;;2.72;1.10;;;31.10;52.50;;;;;;6251622;23;20270;-87
2023/07/21 14:26:35;;;;;;;1.83;1.20;;;30.60;52.40;;;;;;6225807;23;20232;-85
2023/07/21 14:29:02;;;;;;;1.50;1.08;;;29.70;54.70;;;;;;6252082;23;20178;-85
2023/07/21 14:31:32;;;;;;;2.00;1.00;;;29.10;55.20;;;;;;6251480;23;20202;-85
2023/07/21 14:33:59;;;;;;;2.13;1.20;;;28.80;55.80;;;;;;6251654;23;20147;-87
2023/07/21 14:36:27;;;;;;;1.20;1.10;;;28.70;57.10;;;;;;6225848;23;20265;-86
2023/07/21 14:38:54;;;;;;;1.85;1.10;;;28.30;55.90;;;;;;6251162;23;20166;-84
2023/07/21 14:41:22;;;;;;;3.65;1.02;;;28.10;56.60;;;;;;6250908;23;20236;-86
2023/07/21 14:43:49;;;;;;;2.15;1.30;;;27.70;56.70;;;;;;6225931;23;20220;-85
2023/07/21 14:46:16;;;;;;;2.58;1.10;;;27.80;57.10;;;;;;6251905;23;20212;-85
2023/07/21 14:48:43;;;;;;;1.95;1.10;;;28.50;57.80;;;;;;6251931;23;20197;-86
2023/07/21 14:51:11;;;;;;;1.80;1.08;;;29.10;57.00;;;;;;6225253;23;20191;-86
2023/07/21 14:53:38;;;;;;;2.05;1.00;;;29.20;56.40;;;;;;6225804;23;20166;-86
2023/07/21 14:56:05;;;;;;;2.85;1.20;;;29.40;58.00;;;;;;6251690;23;20158;-85
2023/07/21 14:58:32;;;;;;;1.15;1.02;;;29.40;58.70;;;;;;6251251;23;20273;-84
2023/07/21 15:01:00;;;;;;;1.60;1.17;;;29.50;58.50;;;;;;6250412;23;20179;-85
2023/07/21 15:03:33;;;;;;;2.08;1.20;;;29.10;58.80;;;;;;6200312;23;20170;-83
2023/07/21 15:06:03;;;;;;;2.08;1.20;;;28.70;59.60;;;;;;6225508;23;20171;-86
2023/07/21 15:08:35;;;;;;;3.45;1.30;;;28.10;60.60;;;;;;6224021;23;20607;-87
2023/07/21 15:11:15;;;;;;;2.72;1.17;;;27.80;60.80;;;;;;6225052;23;20261;-85
2023/07/21 15:13:48;;;;;;;2.28;1.20;;;27.80;61.80;;;;;;6224759;23;20166;-84
2023/07/21 15:16:16;;;;;;;1.63;1.13;;;27.70;62.00;;;;;;6224444;23;20174;-85
2023/07/21 15:18:44;;;;;;;1.63;1.20;;;27.50;62.70;;;;;;6225149;23;20166;-85
2023/07/21 15:21:11;;;;;;;2.22;1.30;;;27.50;63.90;;;;;;6251841;23;20163;-85
2023/07/21 15:23:40;;;;;;;4.53;1.20;;;27.30;63.40;;;;;;6251868;23;20167;-86
2023/07/21 15:27:00;;;;;;;1.65;1.13;;;27.30;64.20;;;;;;6224569;23;20502;-86
2023/07/21 15:29:40;;;;;;;2.17;1.15;;;27.10;63.40;;;;;;6128363;23;20567;-86
2023/07/21 15:32:14;;;;;;;1.95;1.40;;;27.20;63.60;;;;;;6104427;23;20289;-85
2023/07/21 15:34:49;;;;;;;1.40;1.30;;;26.90;64.80;;;;;;6128741;23;20579;-87
2023/07/21 15:37:29;;;;;;;3.03;1.30;;;26.60;65.40;;;;;;6129340;23;20189;-86
2023/07/21 15:40:11;;;;;;;2.00;1.58;;;27.30;66.10;;;;;;6128343;23;20169;-87
2023/07/21 15:42:46;;;;;;;2.53;1.50;;;27.70;65.40;;;;;;6128879;23;20189;-87
2023/07/21 15:45:13;;;;;;;2.08;1.70;;;27.50;65.10;;;;;;6128939;23;20176;-85
2023/07/21 15:47:41;;;;;;;1.40;1.30;;;28.00;65.90;;;;;;6128329;23;20205;-85
2023/07/21 15:50:10;;;;;;;2.83;1.48;;;28.20;64.20;;;;;;6128780;23;20587;-84
2023/07/21 15:52:40;;;;;;;1.85;1.50;;;28.00;65.00;;;;;;6104287;23;20193;-85
2023/07/21 15:55:11;;;;;;;3.00;1.90;;;27.70;65.70;;;;;;6128756;23;20161;-86
2023/07/21 15:57:41;;;;;;;2.47;1.55;;;27.50;66.80;;;;;;6128260;23;20244;-86
2023/07/21 16:00:15;;;;;;;4.70;1.90;;;27.30;67.80;;;;;;6128843;23;20241;-86
2023/07/21 16:02:56;;;;;;;2.55;1.50;;;27.20;67.60;;;;;;6129454;23;20204;-86
2023/07/21 16:05:32;;;;;;;2.63;1.33;;;27.60;67.30;;;;;;6141798;23;20550;-86
2023/07/21 16:08:02;;;;;;;1.80;1.33;;;28.20;65.90;;;;;;6189990;23;20187;-87
2023/07/21 16:10:35;;;;;;;3.58;1.80;;;28.80;64.20;;;;;;6188981;23;20246;-84
2023/07/21 16:13:03;;;;;;;3.70;1.60;;;29.30;63.50;;;;;;6189610;23;20270;-85
2023/07/21 16:15:30;;;;;;;1.58;1.23;;;29.60;62.10;;;;;;6189113;23;20167;-85
2023/07/21 16:17:57;;;;;;;2.03;1.30;;;29.60;60.80;;;;;;6212730;23;20209;-84
2023/07/21 16:20:24;;;;;;;1.63;1.25;;;29.50;60.60;;;;;;6250854;23;20155;-88
2023/07/21 16:22:52;;;;;;;3.10;1.30;;;29.50;61.50;;;;;;6249072;23;20181;-85
2023/07/21 16:25:20;;;;;;;2.10;1.30;;;29.50;61.70;;;;;;6224583;23;20529;-86
2023/07/21 16:27:48;;;;;;;1.40;1.20;;;29.80;61.40;;;;;;6224867;23;20186;-86
2023/07/21 16:30:15;;;;;;;1.95;1.40;;;29.80;61.00;;;;;;6224226;23;20434;-85
2023/07/21 16:32:42;;;;;;;2.17;1.35;;;29.60;61.10;;;;;;6224624;23;20289;-84
2023/07/21 16:35:12;;;;;;;1.30;1.20;;;29.20;61.30;;;;;;6223982;23;20196;-83
2023/07/21 16:37:39;;;;;;;3.92;1.45;;;29.10;61.90;;;;;;6198764;23;20186;-84
2023/07/21 16:40:08;;;;;;;1.92;1.27;;;28.60;62.40;;;;;;6249227;23;20537;-84
2023/07/21 16:42:36;;;;;;;1.45;1.23;;;28.00;63.50;;;;;;6248599;23;20183;-84
2023/07/21 16:45:08;;;;;;;1.92;1.33;;;27.60;64.90;;;;;;6198539;23;20513;-83
2023/07/21 16:47:36;;;;;;;2.20;1.40;;;27.30;64.00;;;;;;6257245;22;20631;-84
2023/07/21 16:50:04;;;;;;;1.58;1.38;;;27.00;65.20;;;;;;6250388;23;20194;-83
2023/07/21 16:52:32;;;;;;;2.35;1.10;;;26.80;66.20;;;;;;6250303;23;20200;-83
2023/07/21 16:55:00;;;;;;;1.90;1.38;;;26.70;66.60;;;;;;6250352;23;20571;-83
2023/07/21 16:57:27;;;;;;;3.28;1.80;;;26.50;67.00;;;;;;6225422;23;20523;-84
2023/07/21 17:00:00;;;;;;;1.80;1.40;;;26.30;68.50;;;;;;6225448;23;20193;-84
2023/07/21 17:02:29;;;;;;;1.85;1.35;;;26.00;70.50;;;;;;6250385;23;20580;-85
2023/07/21 17:05:10;;;;;;;1.80;1.38;;;25.90;71.20;;;;;;6250230;23;20197;-83
2023/07/21 17:08:18;;;;;;;1.48;1.35;;;25.80;72.50;;;;;;6248798;23;20194;-85
2023/07/21 17:11:11;;;;;;;2.25;1.60;;;25.60;74.30;;;;;;6269571;22;20182;-85
2023/07/21 17:13:46;;;;;;;2.38;1.67;;;25.40;75.10;;;;;;6249750;23;20249;-83
2023/07/21 17:16:17;;;;;;;2.35;1.60;;;25.40;76.40;;;;;;6246616;23;20168;-82
2023/07/21 17:18:44;;;;;;;1.77;1.67;;;25.20;77.50;;;;;;6250072;23;20249;-83
2023/07/21 17:21:11;;;;;;;4.47;1.73;;;25.20;78.20;;;;;;6250097;23;20254;-84
2023/07/21 17:23:40;;;;;;;7.00;2.08;;;25.10;79.30;;;;;;6275855;22;20213;-83
2023/07/21 17:26:07;;;;;;;3.35;1.75;;;25.00;79.30;;;;;;6224557;23;20167;-82
2023/07/21 17:28:35;;;;;;;1.88;1.70;;;24.90;80.40;;;;;;6249427;23;20684;-82
2023/07/21 17:31:03;;;;;;;2.90;1.90;;;24.60;82.10;;;;;;6249418;23;20182;-83
2023/07/21 17:33:32;;;;;;;1.85;1.63;;;24.30;83.10;;;;;;6132406;23;20567;-83
2023/07/21 17:36:00;;;;;;;2.05;1.80;;;24.10;84.30;;;;;;6133521;23;20205;-84
2023/07/21 17:38:27;;;;;;;2.35;1.80;;;24.00;85.00;;;;;;6158317;23;20191;-85
2023/07/21 17:41:03;;;;;;;2.13;1.80;;;23.90;85.60;;;;;;6133581;23;20491;-82
2023/07/21 17:47:22;;;;;;;3.57;2.00;;;23.70;86.70;;;;;;6238253;23;20302;-83
2023/07/21 17:49:49;;;;;;;4.93;2.10;;;23.80;87.70;;;;;;6224581;23;20178;-83
2023/07/21 17:52:17;;;;;;;3.30;1.95;;;23.60;88.30;;;;;;6223984;23;20198;-83
2023/07/21 17:54:44;;;;;;;4.97;2.22;;;23.50;88.90;;;;;;6198655;23;20294;-83
2023/07/21 17:57:14;;;;;;;3.57;2.13;;;23.50;89.30;;;;;;6223787;23;20583;-81
2023/07/21 17:59:43;;;;;;;2.30;2.10;;;23.50;89.60;;;;;;6223679;23;20207;-83
2023/07/21 18:02:13;;;;;;;2.53;2.10;;;23.40;89.90;;;;;;6249092;23;20604;-83
2023/07/21 18:04:41;;;;;;;2.70;2.03;;;23.40;90.10;;;;;;6223864;23;20458;-81
2023/07/21 18:07:12;;;;;;;2.20;1.97;;;23.50;90.30;;;;;;6223945;23;20186;-82
2023/07/21 18:09:56;;;;;;;2.57;2.27;;;23.50;90.40;;;;;;6223455;23;20186;-82
2023/07/21 18:12:35;;;;;;;3.47;2.30;;;23.40;90.50;;;;;;6199438;23;20200;-82
2023/07/21 18:15:23;;;;;;;2.70;2.20;;;23.30;90.90;;;;;;6203454;23;20174;-82
2023/07/21 18:17:54;;;;;;;3.13;2.10;;;23.20;90.90;;;;;;6224055;23;20256;-82
2023/07/21 18:21:08;;;;;;;3.37;2.40;;;23.20;91.10;;;;;;6222275;23;20170;-80
2023/07/21 18:24:16;;;;;;;;;;;;;;;;;;;;;
2023/07/21 18:27:51;;;;;;;2.35;2.13;;;22.90;91.80;;;;;;6094787;23;20201;-83
2023/07/21 18:59:01;;;;;;;;;;;;;;;;;;;;;
2023/07/21 19:01:53;;;;;;;4.20;2.87;;;21.60;95.90;;;;;;6286739;22;20239;-81
2023/07/21 19:21:14;;;;;;;4.37;2.60;;;21.10;99.00;;;;;;6097922;23;20213;-85
2023/07/21 19:47:16;;;;;;;3.13;2.10;;;20.70;99.90;;;;;;5447189;22;17042899;-82
2023/07/21 19:52:57;;;;;;;4.03;2.20;;;20.40;99.90;;;;;;6138103;23;20224;-83
2023/07/21 19:55:39;;;;;;;4.03;2.50;;;20.30;99.90;;;;;;6114359;23;20219;-82
2023/07/21 19:58:18;;;;;;;5.00;2.40;;;20.20;99.90;;;;;;6114457;23;20266;-84
2023/07/21 20:01:08;;;;;;;4.53;2.53;;;20.20;99.90;;;;;;6115556;23;20172;-85
2023/07/21 20:08:39;;;;;;;5.10;2.70;;;20.10;99.90;;;;;;5968361;23;20195;-84
2023/07/21 20:12:05;;;;;;;5.00;3.00;;;20.10;99.90;;;;;;6065263;23;20215;-85
2023/07/21 20:15:19;;;;;;;4.47;2.77;;;20.00;99.90;;;;;;5996891;23;20195;-86
2023/07/21 20:18:02;;;;;;;4.87;2.93;;;20.00;99.90;;;;;;5914362;24;20197;-87
2023/07/21 20:20:29;;;;;;;3.20;2.80;;;19.90;99.90;;;;;;5936684;24;20173;-81
2023/07/21 20:22:56;;;;;;;3.30;2.77;;;19.90;99.90;;;;;;5937082;24;20220;-81
2023/07/21 20:25:23;;;;;;;3.73;3.00;;;19.80;99.90;;;;;;5913921;24;20204;-82
2023/07/21 20:27:50;;;;;;;14.03;4.53;;;19.80;99.90;;;;;;5914039;24;20288;-82
2023/07/21 20:30:18;;;;;;;4.67;3.30;;;19.80;99.90;;;;;;5937222;24;20193;-83
2023/07/21 20:32:50;;;;;;;6.90;3.53;;;19.70;99.90;;;;;;5914549;24;20228;-85
2023/07/21 20:35:17;;;;;;;4.90;3.30;;;19.70;99.90;;;;;;5914420;24;20205;-85
2023/07/21 20:37:45;;;;;;;9.90;4.73;;;19.70;99.90;;;;;;5892176;24;20753;-83
2023/07/21 20:40:12;;;;;;;5.07;3.80;;;19.70;99.90;;;;;;5914108;24;20177;-84
2023/07/21 20:42:40;;;;;;;4.90;3.60;;;19.70;99.90;;;;;;5891278;24;20226;-84
2023/07/21 20:45:08;;;;;;;5.30;3.87;;;19.70;99.90;;;;;;5936634;24;20177;-85
2023/07/21 20:47:38;;;;;;;4.80;4.00;;;19.60;99.90;;;;;;5932070;24;20485;-82
2023/07/21 20:50:07;;;;;;;5.20;4.10;;;19.70;99.90;;;;;;5919576;23;20186;-82
2023/07/21 20:52:34;;;;;;;7.13;4.17;;;19.70;99.90;;;;;;5991381;23;20199;-83
2023/07/21 20:55:05;;;;;;;5.27;3.90;;;19.60;99.90;;;;;;6078401;23;20199;-83
2023/07/21 20:57:43;;;;;;;5.97;4.40;;;19.70;99.90;;;;;;6136302;23;20226;-83
2023/07/21 21:00:13;;;;;;;6.53;4.27;;;19.70;99.90;;;;;;6134815;23;20148;-83
2023/07/21 21:02:42;;;;;;;5.77;4.23;;;19.70;99.90;;;;;;6160805;23;20204;-83
2023/07/21 21:05:11;;;;;;;4.60;4.00;;;19.70;99.90;;;;;;6135440;23;20172;-86
2023/07/21 21:07:39;;;;;;;5.03;4.00;;;19.70;99.90;;;;;;6161925;23;20198;-85
2023/07/21 21:10:07;;;;;;;19.50;7.00;;;19.60;99.90;;;;;;6136041;23;20168;-82
2023/07/21 21:12:35;;;;;;;29.63;7.67;;;19.60;99.90;;;;;;6135813;23;20208;-84
2023/07/21 21:15:03;;;;;;;5.37;4.10;;;19.60;99.90;;;;;;6136237;23;20184;-87
2023/07/21 21:17:30;;;;;;;5.37;4.30;;;19.60;99.90;;;;;;6136193;23;20484;-83
2023/07/21 21:19:58;;;;;;;5.70;4.17;;;19.60;99.90;;;;;;6161401;23;20168;-82
2023/07/21 21:22:25;;;;;;;6.10;4.30;;;19.60;99.90;;;;;;6134893;23;20196;-84
2023/07/21 21:24:52;;;;;;;6.37;3.87;;;19.60;99.90;;;;;;6111006;23;20164;-83
2023/07/21 21:27:19;;;;;;;6.37;4.00;;;19.50;99.90;;;;;;6160811;23;20577;-83
2023/07/21 21:29:46;;;;;;;5.70;4.10;;;19.50;99.90;;;;;;6111339;23;20255;-82
2023/07/21 21:32:13;;;;;;;5.33;3.97;;;19.50;99.90;;;;;;6161297;23;20191;-81
2023/07/21 21:34:41;;;;;;;5.93;4.10;;;19.50;99.90;;;;;;6135682;23;20236;-84
2023/07/21 21:37:08;;;;;;;5.77;4.00;;;19.40;99.90;;;;;;6111567;23;20198;-83
2023/07/21 21:39:35;;;;;;;5.07;4.07;;;19.40;99.90;;;;;;6135326;23;20175;-83
2023/07/21 21:42:02;;;;;;;6.97;4.23;;;19.40;99.90;;;;;;6133986;23;20212;-82
2023/07/21 21:44:29;;;;;;;7.00;3.90;;;19.40;99.90;;;;;;6134551;23;20175;-80
2023/07/21 21:46:56;;;;;;;6.27;4.23;;;19.40;99.90;;;;;;6160695;23;20184;-82
2023/07/21 21:49:23;;;;;;;6.80;4.40;;;19.40;99.90;;;;;;6134871;23;20176;-81
2023/07/21 21:51:50;;;;;;;9.40;4.87;;;19.30;99.90;;;;;;6134492;23;20196;-83
2023/07/21 21:54:17;;;;;;;5.97;4.70;;;19.30;99.90;;;;;;6134378;23;20180;-82
2023/07/21 21:56:44;;;;;;;8.20;4.97;;;19.30;99.90;;;;;;6159417;23;20437;-81
2023/07/21 21:59:11;;;;;;;8.10;5.03;;;19.40;99.90;;;;;;6133092;23;20524;-81
2023/07/21 22:01:38;;;;;;;9.87;5.80;;;19.30;99.90;;;;;;6159459;23;20184;-83
2023/07/21 22:04:05;;;;;;;5.77;5.10;;;19.30;99.90;;;;;;6135194;23;20174;-84
2023/07/21 22:06:32;;;;;;;5.60;4.97;;;19.30;99.90;;;;;;6109859;23;20192;-81
2023/07/21 22:08:59;;;;;;;7.73;5.80;;;19.30;99.90;;;;;;6133726;23;20538;-80
2023/07/21 22:11:27;;;;;;;7.53;5.60;;;19.20;99.90;;;;;;6133137;23;20255;-80
2023/07/21 22:13:54;;;;;;;6.97;5.63;;;19.30;99.90;;;;;;6159524;23;20168;-82
2023/07/21 22:16:22;;;;;;;7.20;5.30;;;19.20;99.90;;;;;;6158997;23;20439;-81
2023/07/21 22:18:50;;;;;;;7.80;5.70;;;19.30;99.90;;;;;;6133805;23;20169;-82
2023/07/21 22:21:17;;;;;;;7.33;5.20;;;19.20;99.90;;;;;;6133629;23;20164;-81
2023/07/21 22:23:44;;;;;;;6.50;5.73;;;19.30;99.90;;;;;;6133798;23;20527;-79
2023/07/21 22:26:11;;;;;;;6.57;5.37;;;19.20;99.90;;;;;;6133582;23;20176;-81
2023/07/21 22:28:38;;;;;;;7.43;5.47;;;19.20;99.90;;;;;;6159274;23;20175;-82
2023/07/21 22:31:13;;;;;;;6.77;5.27;;;19.30;99.90;;;;;;6159506;23;20167;-80
2023/07/21 22:33:41;;;;;;;6.80;5.27;;;19.20;99.90;;;;;;6159077;23;20437;-80
2023/07/21 22:36:12;;;;;;;7.13;5.13;;;19.20;99.90;;;;;;6133202;23;20223;-81
2023/07/21 22:38:39;;;;;;;6.90;5.40;;;19.20;99.90;;;;;;6109364;23;20160;-82
2023/07/21 22:41:10;;;;;;;5.83;5.10;;;19.20;99.90;;;;;;6159352;23;20192;-81
2023/07/21 22:43:39;;;;;;;5.60;4.93;;;19.20;99.90;;;;;;6133427;23;20174;-81
2023/07/21 22:46:06;;;;;;;7.27;5.47;;;19.20;99.90;;;;;;6133368;23;20250;-82
2023/07/21 22:48:35;;;;;;;5.10;4.57;;;19.20;99.90;;;;;;6133460;23;20192;-81
2023/07/21 22:51:05;;;;;;;6.90;5.40;;;19.20;99.90;;;;;;6159150;23;20171;-81
2023/07/21 22:53:34;;;;;;;6.10;4.83;;;19.20;99.90;;;;;;6133269;23;20516;-81
2023/07/21 22:56:01;;;;;;;5.43;4.63;;;19.10;99.90;;;;;;6133220;23;20188;-82
2023/07/21 22:58:29;;;;;;;6.37;4.80;;;19.00;99.90;;;;;;6133530;23;20198;-81
2023/07/21 23:00:55;;;;;;;6.83;5.20;;;19.10;99.90;;;;;;6159185;23;20696;-80
2023/07/21 23:03:23;;;;;;;7.17;5.03;;;19.10;99.90;;;;;;6133165;23;20270;-80
2023/07/21 23:05:50;;;;;;;6.80;4.70;;;19.10;99.90;;;;;;6133088;23;20168;-81
2023/07/21 23:08:17;;;;;;;5.97;5.30;;;19.00;99.90;;;;;;6108775;23;20196;-82
2023/07/21 23:10:44;;;;;;;7.00;5.20;;;19.00;99.90;;;;;;6133009;23;20539;-81
2023/07/21 23:13:11;;;;;;;7.57;5.50;;;19.00;99.90;;;;;;6133449;23;20607;-80
2023/07/21 23:15:38;;;;;;;6.73;5.30;;;19.00;99.90;;;;;;6133404;23;20191;-82
2023/07/21 23:18:05;;;;;;;8.37;5.47;;;19.00;99.90;;;;;;6158838;23;20633;-80
2023/07/21 23:20:32;;;;;;;8.63;5.40;;;19.00;99.90;;;;;;6133215;23;20168;-81
2023/07/21 23:23:00;;;;;;;6.90;5.20;;;19.00;99.90;;;;;;6158970;23;20586;-81
2023/07/21 23:25:27;;;;;;;7.40;5.70;;;19.00;99.90;;;;;;6133239;23;20180;-82
2023/07/21 23:27:54;;;;;;;6.90;5.60;;;19.00;99.90;;;;;;6132696;23;20188;-81
2023/07/21 23:30:22;;;;;;;7.73;5.47;;;18.90;99.90;;;;;;6133119;23;20176;-80
2023/07/21 23:32:49;;;;;;;10.00;5.47;;;18.90;99.90;;;;;;6133142;23;20544;-81
2023/07/21 23:35:16;;;;;;;7.27;5.57;;;19.00;99.90;;;;;;6158605;23;20243;-83
2023/07/21 23:37:44;;;;;;;7.93;5.13;;;18.90;99.90;;;;;;6133787;23;20185;-80
2023/07/21 23:40:11;;;;;;;6.27;5.20;;;18.90;99.90;;;;;;6133480;23;20165;-80
2023/07/21 23:42:43;;;;;;;6.73;5.43;;;18.90;99.90;;;;;;6133205;23;20207;-81
2023/07/21 23:45:12;;;;;;;7.80;5.27;;;18.90;99.90;;;;;;6108599;23;20171;-80
2023/07/21 23:47:41;;;;;;;6.73;5.30;;;18.90;99.90;;;;;;6133295;23;20184;-82
2023/07/21 23:50:08;;;;;;;8.30;5.50;;;18.90;99.90;;;;;;6133219;23;20195;-80
2023/07/21 23:52:37;;;;;;;9.03;5.50;;;18.90;99.90;;;;;;6158630;23;20184;-80
2023/07/21 23:55:05;;;;;;;8.40;5.50;;;18.90;99.90;;;;;;6133388;23;20164;-80
2023/07/21 23:57:32;;;;;;;7.13;5.50;;;19.00;99.90;;;;;;6132706;23;20206;-80
2023/07/21 23:59:59;;;;;;;8.80;5.30;;;19.00;99.90;;;;;;6133497;23;20227;-81
